Aviation Digital Data Service (ADDS)

Output produced by METARs form (1739 UTC 27 May 2017)
found at http://www.aviationweather.gov/adds/metars/
 
GQPA 271500Z 34004KT 8000 NSC 41/07 Q1010
GQNI 271500Z 18012KT 5000 HZ BKN130 39/17 Q////
GQPP 271700Z 34018KT 7000 DRSA NSC 22/16 Q1013 NOSIG
TAF GQPP 271100Z 2712/2812 36014G25KT 7000 NSC 
     TEMPO 2712/2720 2500 DRSA 
     PROB30 
     TEMPO 2804/2808 BKN005